createdAt,value
2018-06-04T00:01:20.585Z,101248.92
2018-06-04T00:03:50.273Z,101250.16
2018-06-04T00:06:20.502Z,101249.22
2018-06-04T00:08:50.088Z,101250.57
2018-06-04T00:11:19.637Z,101245.16
2018-06-04T00:13:50.158Z,101241.31
2018-06-04T00:16:20.233Z,101236.75
2018-06-04T00:18:49.681Z,101241.05
2018-06-04T00:21:19.054Z,101227.39
2018-06-04T00:23:49.408Z,101229.89
2018-06-04T00:26:18.788Z,101221.00
2018-06-04T00:28:48.291Z,101224.55
2018-06-04T00:31:17.700Z,101222.00
2018-06-04T00:33:46.969Z,101222.05
2018-06-04T00:36:16.482Z,101218.14
2018-06-04T00:38:45.875Z,101226.70
2018-06-04T00:41:15.186Z,101229.41
2018-06-04T00:43:44.989Z,101225.14
2018-06-04T00:46:14.354Z,101224.34
2018-06-04T00:48:43.611Z,101220.30
2018-06-04T00:51:12.977Z,101225.84
2018-06-04T00:53:42.750Z,101214.75
2018-06-04T00:56:22.773Z,101219.02
2018-06-04T00:58:52.170Z,101220.02
2018-06-04T01:01:21.523Z,101225.41
2018-06-04T01:03:51.074Z,101222.86
2018-06-04T01:06:20.594Z,101219.74
2018-06-04T01:08:50.618Z,101217.95
2018-06-04T01:11:20.332Z,101225.39
2018-06-04T01:13:49.966Z,101210.05
2018-06-04T01:16:20.572Z,101221.75
2018-06-04T01:18:51.293Z,101220.55
2018-06-04T01:21:20.890Z,101216.84
2018-06-04T01:23:50.896Z,101214.59
2018-06-04T01:26:20.638Z,101207.46
2018-06-04T01:28:50.350Z,101204.91
2018-06-04T01:31:20.431Z,101200.36
2018-06-04T01:33:49.832Z,101202.45
2018-06-04T01:36:19.210Z,101199.50
2018-06-04T01:38:48.843Z,101195.74
2018-06-04T01:41:19.201Z,101195.04
2018-06-04T01:43:48.650Z,101197.66
2018-06-04T01:46:18.214Z,101192.09
2018-06-04T01:48:47.607Z,101197.52
2018-06-04T01:51:16.992Z,101191.34
2018-06-04T01:53:46.519Z,101191.98
2018-06-04T01:56:15.971Z,101190.64
2018-06-04T01:58:45.276Z,101194.30
2018-06-04T02:01:14.511Z,101190.89
2018-06-04T02:03:44.029Z,101184.64
2018-06-04T02:06:13.223Z,101186.48
2018-06-04T02:08:43.100Z,101186.67
2018-06-04T02:11:13.147Z,101188.59
2018-06-04T02:13:42.409Z,101183.41
2018-06-04T02:16:11.707Z,101175.95
2018-06-04T02:18:42.965Z,101184.58
2018-06-04T02:21:12.204Z,101183.73
2018-06-04T02:23:41.645Z,101175.92
2018-06-04T02:26:11.013Z,101176.34
2018-06-04T02:28:40.250Z,101170.77
2018-06-04T02:31:09.548Z,101173.82
2018-06-04T02:33:39.188Z,101167.08
2018-06-04T02:36:08.549Z,101162.04
2018-06-04T02:38:37.780Z,101172.05
2018-06-04T02:41:07.185Z,101171.05
2018-06-04T02:43:36.520Z,101167.65
2018-06-04T02:46:05.996Z,101168.92
2018-06-04T02:48:35.357Z,101171.77
2018-06-04T02:51:04.761Z,101165.16
2018-06-04T02:53:34.065Z,101168.78
2018-06-04T02:56:04.293Z,101166.37
2018-06-04T02:58:33.512Z,101163.31
2018-06-04T03:01:02.915Z,101158.99
2018-06-04T03:03:32.322Z,101154.23
2018-06-04T03:06:01.642Z,101154.80
2018-06-04T03:08:31.170Z,101157.08
2018-06-04T03:11:00.678Z,101150.55
2018-06-04T03:13:29.937Z,101155.69
2018-06-04T03:15:59.835Z,101152.25
2018-06-04T03:18:30.078Z,101151.26
2018-06-04T03:20:59.756Z,101146.92
2018-06-04T03:23:29.775Z,101148.48
2018-06-04T03:25:59.819Z,101146.08
2018-06-04T03:28:29.529Z,101142.49
2018-06-04T03:30:59.292Z,101146.32
2018-06-04T03:33:29.513Z,101148.81
2018-06-04T03:35:59.271Z,101146.67
2018-06-04T03:38:28.850Z,101143.13
2018-06-04T03:40:58.856Z,101139.58
2018-06-04T03:43:28.911Z,101133.77
2018-06-04T03:45:59.004Z,101140.86
2018-06-04T03:48:29.125Z,101141.22
2018-06-04T03:50:58.451Z,101144.27
2018-06-04T03:53:28.061Z,101139.33
2018-06-04T03:55:58.306Z,101138.13
2018-06-04T03:58:27.622Z,101138.34
2018-06-04T04:00:56.901Z,101131.66
2018-06-04T04:03:26.394Z,101133.86
2018-06-04T04:05:55.757Z,101131.59
2018-06-04T04:08:25.143Z,101131.23
2018-06-04T04:10:54.950Z,101127.94
2018-06-04T04:13:25.413Z,101126.09
2018-06-04T04:15:54.882Z,101129.15
2018-06-04T04:18:25.268Z,101136.88
2018-06-04T04:20:55.041Z,101127.59
2018-06-04T04:23:24.952Z,101128.19
2018-06-04T04:25:54.796Z,101134.19
2018-06-04T04:28:24.575Z,101136.84
2018-06-04T04:30:54.345Z,101125.55
2018-06-04T04:33:24.151Z,101129.39
2018-06-04T04:35:53.890Z,101122.30
2018-06-04T04:38:23.675Z,101123.05
2018-06-04T04:40:53.886Z,101122.34
2018-06-04T04:43:24.001Z,101119.70
2018-06-04T04:45:53.475Z,101117.61
2018-06-04T04:48:22.993Z,101114.77
2018-06-04T04:50:52.381Z,101112.71
2018-06-04T04:53:22.003Z,101112.07
2018-06-04T04:55:52.021Z,101107.53
2018-06-04T04:58:21.970Z,101111.78
2018-06-04T05:00:51.989Z,101105.99
2018-06-04T05:03:21.858Z,101106.55
2018-06-04T05:05:51.371Z,101114.58
2018-06-04T05:08:21.085Z,101105.14
2018-06-04T05:10:50.573Z,101099.95
2018-06-04T05:13:22.621Z,101107.55
2018-06-04T05:15:52.966Z,101100.09
2018-06-04T05:18:23.810Z,101096.47
2018-06-04T05:20:53.594Z,101096.21
2018-06-04T05:23:23.310Z,101102.56
2018-06-04T05:25:53.000Z,101095.22
2018-06-04T05:28:22.612Z,101103.52
2018-06-04T05:30:52.831Z,101102.56
2018-06-04T05:33:22.607Z,101096.62
2018-06-04T05:35:52.288Z,101097.48
2018-06-04T05:38:22.006Z,101092.23
2018-06-04T05:40:51.845Z,101083.84
2018-06-04T05:43:21.450Z,101086.89
2018-06-04T05:45:51.226Z,101091.09
2018-06-04T05:48:21.080Z,101083.79
2018-06-04T05:50:50.672Z,101086.25
2018-06-04T05:53:20.256Z,101088.33
2018-06-04T05:55:50.054Z,101090.59
2018-06-04T05:58:19.509Z,101095.34
2018-06-04T06:00:48.899Z,101091.73
2018-06-04T06:03:18.713Z,101088.59
2018-06-04T06:05:48.344Z,101092.44
2018-06-04T06:08:17.736Z,101094.44
2018-06-04T06:10:47.098Z,101088.59
2018-06-04T06:13:16.513Z,101089.17
2018-06-04T06:15:45.836Z,101090.52
2018-06-04T06:18:15.150Z,101083.28
2018-06-04T06:20:44.678Z,101084.98
2018-06-04T06:23:13.960Z,101085.69
2018-06-04T06:25:43.830Z,101086.39
2018-06-04T06:28:13.159Z,101086.39
2018-06-04T06:30:42.421Z,101083.48
2018-06-04T06:33:11.891Z,101080.73
2018-06-04T06:35:41.360Z,101083.34
2018-06-04T06:38:10.729Z,101080.23
2018-06-04T06:40:40.941Z,101084.34
2018-06-04T06:43:10.207Z,101081.09
2018-06-04T06:45:39.493Z,101076.19
2018-06-04T06:48:09.477Z,101073.14
2018-06-04T06:50:38.749Z,101080.30
2018-06-04T06:53:08.093Z,101082.20
2018-06-04T06:55:37.374Z,101071.85
2018-06-04T06:58:06.612Z,101076.80
2018-06-04T07:00:35.873Z,101078.60
2018-06-04T07:03:06.512Z,101079.30
2018-06-04T07:05:35.764Z,101075.75
2018-06-04T07:08:05.083Z,101078.45
2018-06-04T07:10:34.619Z,101080.50
2018-06-04T07:13:03.991Z,101076.05
2018-06-04T07:15:33.277Z,101078.66
2018-06-04T07:18:02.621Z,101078.95
2018-06-04T07:20:32.075Z,101076.55
2018-06-04T07:23:01.793Z,101079.59
2018-06-04T07:25:31.201Z,101091.39
2018-06-04T07:28:00.879Z,101095.14
2018-06-04T07:30:30.573Z,101095.55
2018-06-04T07:32:59.936Z,101092.30
2018-06-04T07:35:29.416Z,101099.75
2018-06-04T07:37:59.196Z,101099.75
2018-06-04T07:40:28.606Z,101099.75
2018-06-04T07:42:57.942Z,101098.48
2018-06-04T07:45:27.362Z,101103.89
2018-06-04T07:47:57.421Z,101101.09
2018-06-04T07:50:26.862Z,101103.04
2018-06-04T07:52:56.894Z,101103.25
2018-06-04T07:55:27.062Z,101098.84
2018-06-04T07:57:56.468Z,101098.14
2018-06-04T08:00:25.903Z,101095.94
2018-06-04T08:02:55.677Z,101090.09
2018-06-04T08:05:25.499Z,101096.48
2018-06-04T08:07:55.352Z,101098.28
2018-06-04T08:10:25.635Z,101098.34
2018-06-04T08:12:55.134Z,101097.70
2018-06-04T08:15:25.152Z,101105.15
2018-06-04T08:17:54.859Z,101108.59
2018-06-04T08:20:24.515Z,101102.09
2018-06-04T08:22:54.179Z,101105.44
2018-06-04T08:25:24.045Z,101097.34
2018-06-04T08:27:53.800Z,101095.55
2018-06-04T08:30:23.456Z,101098.78
2018-06-04T08:32:53.158Z,101096.98
2018-06-04T08:35:23.058Z,101092.29
2018-06-04T08:37:52.680Z,101096.63
2018-06-04T08:40:22.801Z,101096.94
2018-06-04T08:42:52.720Z,101089.59
2018-06-04T08:45:22.392Z,101092.00
2018-06-04T08:47:52.255Z,101101.39
2018-06-04T08:50:22.235Z,101098.75
2018-06-04T08:52:51.932Z,101092.70
2018-06-04T08:55:21.856Z,101090.79
2018-06-04T08:57:51.867Z,101088.94
2018-06-04T09:00:22.239Z,101083.76
2018-06-04T09:02:52.047Z,101081.29
2018-06-04T09:05:21.603Z,101080.66
2018-06-04T09:07:52.172Z,101075.61
2018-06-04T09:10:21.752Z,101083.51
2018-06-04T09:12:51.349Z,101087.26
2018-06-04T09:15:20.968Z,101083.36
2018-06-04T09:17:50.490Z,101080.86
2018-06-04T09:20:19.995Z,101076.86
2018-06-04T09:22:49.636Z,101075.50
2018-06-04T09:25:18.977Z,101077.09
2018-06-04T09:27:48.358Z,101077.48
2018-06-04T09:30:17.827Z,101082.47
2018-06-04T09:32:47.092Z,101083.09
2018-06-04T09:35:16.412Z,101079.31
2018-06-04T09:37:45.800Z,101075.23
2018-06-04T09:40:15.090Z,101077.98
2018-06-04T09:42:44.416Z,101078.28
2018-06-04T09:45:13.724Z,101075.46
2018-06-04T09:47:43.025Z,101075.77
2018-06-04T09:50:12.322Z,101069.28
2018-06-04T09:52:41.696Z,101069.83
2018-06-04T09:55:11.026Z,101070.03
2018-06-04T09:57:40.305Z,101076.52
2018-06-04T10:00:09.730Z,101067.67
2018-06-04T10:02:39.075Z,101072.66
2018-06-04T10:05:08.405Z,101069.30
2018-06-04T10:07:37.732Z,101063.39
2018-06-04T10:10:07.390Z,101062.16
2018-06-04T10:12:36.744Z,101065.35
2018-06-04T10:15:06.222Z,101057.00
2018-06-04T10:17:35.519Z,101057.16
2018-06-04T10:20:04.851Z,101052.80
2018-06-04T10:22:34.215Z,101050.55
2018-06-04T10:25:03.541Z,101051.44
2018-06-04T10:27:33.045Z,101039.70
2018-06-04T10:30:02.766Z,101038.78
2018-06-04T10:32:32.168Z,101031.89
2018-06-04T10:35:01.754Z,101036.18
2018-06-04T10:37:31.294Z,101025.12
2018-06-04T10:40:00.979Z,101026.03
2018-06-04T10:42:31.030Z,101019.09
2018-06-04T10:45:00.935Z,101025.00
2018-06-04T10:47:30.669Z,101027.26
2018-06-04T10:50:00.323Z,101024.20
2018-06-04T10:52:29.816Z,101019.20
2018-06-04T10:54:59.422Z,101016.37
2018-06-04T10:57:29.009Z,101008.12
2018-06-04T10:59:58.966Z,101014.19
2018-06-04T11:02:28.722Z,101012.27
2018-06-04T11:04:58.295Z,101002.76
2018-06-04T11:07:28.484Z,101002.13
2018-06-04T11:09:58.090Z,100999.09
2018-06-04T11:12:27.757Z,101000.84
2018-06-04T11:14:57.761Z,100996.04
2018-06-04T11:17:27.412Z,101003.08
2018-06-04T11:19:56.951Z,100990.80
2018-06-04T11:22:26.756Z,100985.39
2018-06-04T11:24:56.247Z,100984.09
2018-06-04T11:27:25.980Z,100991.50
2018-06-04T11:29:55.573Z,100978.84
2018-06-04T11:32:25.129Z,100989.21
2018-06-04T11:34:54.917Z,100988.31
2018-06-04T11:37:24.588Z,100982.74
2018-06-04T11:39:54.119Z,100984.34
2018-06-04T11:42:23.955Z,100981.14
2018-06-04T11:44:54.260Z,100989.41
2018-06-04T11:47:24.095Z,100984.38
2018-06-04T11:49:53.710Z,100982.09
2018-06-04T11:52:24.643Z,100991.34
2018-06-04T11:54:54.240Z,100981.89
2018-06-04T11:57:24.007Z,100982.75
2018-06-04T11:59:53.770Z,100975.77
2018-06-04T12:02:23.372Z,100965.87
2018-06-04T12:04:53.252Z,100972.13
2018-06-04T12:07:23.480Z,100975.69
2018-06-04T12:09:53.560Z,100973.98
2018-06-04T12:12:23.650Z,100965.16
2018-06-04T12:14:53.368Z,100967.10
2018-06-04T12:17:23.491Z,100966.63
2018-06-04T12:19:53.723Z,100961.95
2018-06-04T12:22:24.473Z,100963.70
2018-06-04T12:24:54.063Z,100959.45
2018-06-04T12:27:23.752Z,100962.04
2018-06-04T12:29:53.323Z,100956.42
2018-06-04T12:32:23.000Z,100953.16
2018-06-04T12:34:52.547Z,100950.62
2018-06-04T12:37:22.379Z,100953.69
2018-06-04T12:39:51.974Z,100948.11
2018-06-04T12:42:22.187Z,100947.44
2018-06-04T12:44:52.131Z,100948.53
2018-06-04T12:47:21.852Z,100947.88
2018-06-04T12:49:51.520Z,100951.84
2018-06-04T12:52:22.355Z,100954.53
2018-06-04T12:54:51.989Z,100946.48
2018-06-04T12:57:21.455Z,100951.20
2018-06-04T12:59:51.801Z,100946.72
2018-06-04T13:02:21.800Z,100949.21
2018-06-04T13:04:52.435Z,100945.42
2018-06-04T13:07:22.068Z,100942.89
2018-06-04T13:09:52.006Z,100944.35
2018-06-04T13:12:22.296Z,100938.73
2018-06-04T13:14:51.796Z,100943.08
2018-06-04T13:17:21.915Z,100945.41
2018-06-04T13:19:51.736Z,100944.16
2018-06-04T13:22:21.381Z,100948.03
2018-06-04T13:24:51.182Z,100949.33
2018-06-04T13:27:21.071Z,100940.67
2018-06-04T13:29:51.023Z,100940.36
2018-06-04T13:32:20.694Z,100937.14
2018-06-04T13:34:51.121Z,100947.79
2018-06-04T13:37:20.657Z,100942.19
2018-06-04T13:39:50.948Z,100945.73
2018-06-04T13:42:21.670Z,100956.58
2018-06-04T13:44:51.433Z,100945.13
2018-06-04T13:47:21.408Z,100945.67
2018-06-04T13:49:51.682Z,100940.25
2018-06-04T13:52:21.493Z,100941.34
2018-06-04T13:54:51.248Z,100936.20
2018-06-04T13:57:21.168Z,100941.62
2018-06-04T13:59:50.796Z,100936.49
2018-06-04T14:02:20.277Z,100924.46
2018-06-04T14:04:49.827Z,100929.14
2018-06-04T14:07:19.337Z,100928.12
2018-06-04T14:09:48.858Z,100922.38
2018-06-04T14:12:18.296Z,100920.48
2018-06-04T14:14:47.823Z,100920.23
2018-06-04T14:17:17.309Z,100926.14
2018-06-04T14:19:46.773Z,100923.41
2018-06-04T14:22:16.328Z,100921.01
2018-06-04T14:24:45.662Z,100932.91
2018-06-04T14:27:15.265Z,100928.02
2018-06-04T14:29:44.530Z,100919.55
2018-06-04T14:32:13.894Z,100932.51
2018-06-04T14:34:43.443Z,100927.69
2018-06-04T14:37:12.814Z,100919.13
2018-06-04T14:39:42.288Z,100926.53
2018-06-04T14:42:11.634Z,100926.88
2018-06-04T14:44:40.927Z,100917.98
2018-06-04T14:47:10.349Z,100915.55
2018-06-04T14:49:39.817Z,100919.89
2018-06-04T14:52:09.098Z,100920.41
2018-06-04T14:54:38.499Z,100915.75
2018-06-04T14:58:37.074Z,100919.55
2018-06-04T15:01:06.803Z,100919.69
2018-06-04T15:03:36.307Z,100916.97
2018-06-04T15:06:05.919Z,100926.97
2018-06-04T15:08:35.512Z,100929.64
2018-06-04T15:11:05.135Z,100930.58
2018-06-04T15:13:34.870Z,100932.81
2018-06-04T15:16:04.503Z,100931.55
2018-06-04T15:18:34.453Z,100928.91
2018-06-04T15:21:04.246Z,100926.44
2018-06-04T15:23:34.017Z,100924.14
2018-06-04T15:26:03.659Z,100922.52
2018-06-04T15:28:33.559Z,100925.34
2018-06-04T15:31:03.342Z,100924.66
2018-06-04T15:33:33.350Z,100914.94
2018-06-04T15:36:02.793Z,100914.00
2018-06-04T15:38:32.527Z,100905.92
2018-06-04T15:41:02.045Z,100913.57
2018-06-04T15:43:31.994Z,100908.00
2018-06-04T15:46:01.649Z,100903.44
2018-06-04T15:48:31.344Z,100905.41
2018-06-04T15:51:01.481Z,100905.98
2018-06-04T15:53:31.144Z,100909.22
2018-06-04T15:56:00.846Z,100899.63
2018-06-04T15:58:30.687Z,100901.25
2018-06-04T16:01:00.658Z,100909.55
2018-06-04T16:03:30.331Z,100904.38
2018-06-04T16:06:00.023Z,100897.91
2018-06-04T16:08:29.794Z,100899.16
2018-06-04T16:10:59.209Z,100904.36
2018-06-04T16:13:28.979Z,100903.05
2018-06-04T16:15:58.505Z,100907.20
2018-06-04T16:18:28.189Z,100903.42
2018-06-04T16:20:57.781Z,100894.84
2018-06-04T16:23:27.301Z,100900.00
2018-06-04T16:25:57.072Z,100890.73
2018-06-04T16:28:26.653Z,100889.54
2018-06-04T16:30:56.145Z,100891.80
2018-06-04T16:33:25.934Z,100893.58
2018-06-04T16:35:55.644Z,100899.61
2018-06-04T16:38:25.243Z,100890.55
2018-06-04T16:40:55.166Z,100890.94
2018-06-04T16:43:25.284Z,100885.88
2018-06-04T16:45:54.993Z,100883.89
2018-06-04T16:48:24.653Z,100883.02
2018-06-04T16:50:54.600Z,100887.30
2018-06-04T16:53:24.891Z,100881.75
2018-06-04T16:55:54.939Z,100871.31
2018-06-04T16:58:24.656Z,100875.05
2018-06-04T17:00:54.512Z,100871.90
2018-06-04T17:03:24.217Z,100877.30
2018-06-04T17:05:54.434Z,100876.13
2018-06-04T17:08:24.245Z,100879.25
2018-06-04T17:10:54.151Z,100873.33
2018-06-04T17:13:24.855Z,100876.63
2018-06-04T17:15:54.779Z,100874.59
2018-06-04T17:18:24.484Z,100880.88
2018-06-04T17:20:54.428Z,100869.05
2018-06-04T17:23:24.114Z,100870.94
2018-06-04T17:25:53.821Z,100865.33
2018-06-04T17:28:23.729Z,100871.99
2018-06-04T17:30:53.561Z,100865.62
2018-06-04T17:33:23.271Z,100860.05
2018-06-04T17:35:52.898Z,100870.55
2018-06-04T17:38:22.676Z,100861.92
2018-06-04T17:40:52.671Z,100864.97
2018-06-04T17:43:22.411Z,100861.25
2018-06-04T17:45:52.118Z,100858.55
2018-06-04T17:48:21.708Z,100858.19
2018-06-04T17:50:51.647Z,100854.08
2018-06-04T17:53:21.255Z,100853.61
2018-06-04T17:55:51.174Z,100850.73
2018-06-04T17:58:20.910Z,100844.30
2018-06-04T18:00:51.044Z,100836.60
2018-06-04T18:03:21.354Z,100850.69
2018-06-04T18:05:51.245Z,100849.66
2018-06-04T18:08:21.141Z,100846.94
2018-06-04T18:10:51.073Z,100852.37
2018-06-04T18:13:21.275Z,100852.04
2018-06-04T18:15:51.197Z,100850.36
2018-06-04T18:18:21.473Z,100846.80
2018-06-04T18:20:51.324Z,100857.36
2018-06-04T18:23:21.874Z,100843.10
2018-06-04T18:25:51.747Z,100846.32
2018-06-04T18:28:21.700Z,100847.52
2018-06-04T18:30:51.968Z,100849.66
2018-06-04T18:33:22.658Z,100854.53
2018-06-04T18:35:52.998Z,100856.39
2018-06-04T18:38:22.901Z,100853.00
2018-06-04T18:40:52.932Z,100853.02
2018-06-04T18:43:22.811Z,100855.75
2018-06-04T18:45:52.529Z,100853.73
2018-06-04T18:48:22.768Z,100855.08
2018-06-04T18:50:52.939Z,100857.61
2018-06-04T18:53:23.964Z,100857.72
2018-06-04T18:55:54.069Z,100858.33
2018-06-04T18:58:24.183Z,100857.27
2018-06-04T19:00:54.116Z,100859.33
2018-06-04T19:03:24.446Z,100853.70
2018-06-04T19:05:54.758Z,100856.67
2018-06-04T19:08:24.993Z,100855.59
2018-06-04T19:10:55.058Z,100861.77
2018-06-04T19:13:24.830Z,100858.31
2018-06-04T19:15:54.331Z,100853.61
2018-06-04T19:18:24.078Z,100861.12
2018-06-04T19:20:54.205Z,100855.16
2018-06-04T19:23:24.550Z,100854.44
2018-06-04T19:25:54.789Z,100862.18
2018-06-04T19:28:24.497Z,100858.95
2018-06-04T19:30:54.434Z,100864.48
2018-06-04T19:33:25.488Z,100859.71
2018-06-04T19:35:55.357Z,100865.78
2018-06-04T19:38:25.132Z,100860.98
2018-06-04T19:40:54.921Z,100868.30
2018-06-04T19:43:24.687Z,100867.93
2018-06-04T19:45:54.609Z,100870.25
2018-06-04T19:48:24.409Z,100876.32
2018-06-04T19:50:54.428Z,100884.08
2018-06-04T19:53:24.470Z,100879.34
2018-06-04T19:55:55.617Z,100884.48
2018-06-04T19:58:25.958Z,100887.81
2018-06-04T20:00:55.726Z,100884.34
2018-06-04T20:03:25.469Z,100885.81
2018-06-04T20:05:55.261Z,100884.20
2018-06-04T20:08:24.981Z,100888.91
2018-06-04T20:10:55.068Z,100886.98
2018-06-04T20:13:24.893Z,100894.52
2018-06-04T20:15:54.645Z,100898.95
2018-06-04T20:18:24.458Z,100890.46
2018-06-04T20:20:54.859Z,100892.97
2018-06-04T20:23:25.202Z,100895.44
2018-06-04T20:25:55.130Z,100898.09
2018-06-04T20:28:25.318Z,100890.80
2018-06-04T20:30:55.165Z,100888.37
2018-06-04T20:33:25.153Z,100895.92
2018-06-04T20:35:54.880Z,100892.88
2018-06-04T20:38:25.089Z,100890.41
2018-06-04T20:40:55.834Z,100893.05
2018-06-04T20:43:25.426Z,100891.27
2018-06-04T20:45:55.458Z,100896.32
2018-06-04T20:48:25.337Z,100891.53
2018-06-04T20:50:54.860Z,100890.44
2018-06-04T20:53:25.625Z,100892.80
2018-06-04T20:55:55.403Z,100893.04
2018-06-04T20:58:25.326Z,100894.95
2018-06-04T21:00:55.543Z,100894.06
2018-06-04T21:03:25.556Z,100896.13
2018-06-04T21:05:55.492Z,100896.72
2018-06-04T21:08:25.280Z,100899.47
2018-06-04T21:10:55.537Z,100902.52
2018-06-04T21:13:25.364Z,100900.11
2018-06-04T21:15:55.881Z,100902.30
2018-06-04T21:18:26.506Z,100905.44
2018-06-04T21:20:56.483Z,100907.19
2018-06-04T21:23:26.958Z,100906.62
2018-06-04T21:25:56.949Z,100909.96
2018-06-04T21:28:27.165Z,100910.86
2018-06-04T21:30:57.008Z,100907.45
2018-06-04T21:33:26.783Z,100910.16
2018-06-04T21:35:56.706Z,100914.89
2018-06-04T21:38:26.322Z,100918.52
2018-06-04T21:40:56.467Z,100915.16
2018-06-04T21:43:29.114Z,100915.09
2018-06-04T21:46:01.694Z,100916.34
2018-06-04T21:48:32.440Z,100920.63
2018-06-04T21:51:02.307Z,100925.48
2018-06-04T21:53:34.509Z,100928.59
2018-06-04T21:56:04.161Z,100925.30
2018-06-04T21:58:34.297Z,100922.18
2018-06-04T22:01:04.251Z,100919.63
2018-06-04T22:03:38.045Z,100924.80
2018-06-04T22:06:10.007Z,100924.96
2018-06-04T22:08:39.512Z,100922.69
2018-06-04T22:11:08.836Z,100922.36
2018-06-04T22:13:38.937Z,100921.95
2018-06-04T22:16:08.236Z,100922.66
2018-06-04T22:18:39.256Z,100927.80
2018-06-04T22:21:08.963Z,100925.11
2018-06-04T22:23:38.429Z,100927.05
2018-06-04T22:26:07.717Z,100933.42
2018-06-04T22:28:37.328Z,100934.32
2018-06-04T22:31:06.631Z,100936.52
2018-06-04T22:33:35.929Z,100930.56
2018-06-04T22:36:05.330Z,100926.41
2018-06-04T22:38:40.676Z,100927.53
2018-06-04T22:41:10.177Z,100926.69
2018-06-04T22:43:41.811Z,100934.77
2018-06-04T22:46:12.053Z,100932.27
2018-06-04T22:48:41.402Z,100938.14
2018-06-04T22:51:10.734Z,100942.53
2018-06-04T22:53:40.819Z,100950.75
2018-06-04T22:56:10.301Z,100954.06
2018-06-04T22:58:39.567Z,100954.91
2018-06-04T23:01:10.033Z,100952.98
2018-06-04T23:03:39.928Z,100955.41
2018-06-04T23:06:09.336Z,100953.48
2018-06-04T23:08:39.204Z,100960.11
2018-06-04T23:11:08.992Z,100959.27
2018-06-04T23:13:38.944Z,100960.75
2018-06-04T23:16:08.667Z,100960.39
2018-06-04T23:18:38.881Z,100960.03
2018-06-04T23:21:11.423Z,100956.00
2018-06-04T23:23:40.891Z,100955.91
2018-06-04T23:26:10.292Z,100949.78
2018-06-04T23:28:40.485Z,100946.88
2018-06-04T23:31:10.472Z,100954.80
2018-06-04T23:33:40.043Z,100956.41
2018-06-04T23:36:11.148Z,100958.86
2018-06-04T23:38:41.437Z,100957.78
2018-06-04T23:41:13.458Z,100963.88
2018-06-04T23:43:42.839Z,100960.34
2018-06-04T23:46:13.681Z,100968.14
2018-06-04T23:48:44.700Z,100969.13
2018-06-04T23:51:14.122Z,100967.78
2018-06-04T23:53:44.002Z,100973.28
2018-06-04T23:56:13.650Z,100975.73
2018-06-04T23:58:44.260Z,100973.88
